sensor_id;sensor_type;location;lat;lon;timestamp;P1;durP1;ratioP1;P2;durP2;ratioP2
25637;SDS011;13496;51.040;13.680;2023-01-19T00:03:21;3.97;;;2.47;;
25637;SDS011;13496;51.040;13.680;2023-01-19T00:08:23;3.80;;;2.40;;
25637;SDS011;13496;51.040;13.680;2023-01-19T00:13:24;2.20;;;2.00;;
25637;SDS011;13496;51.040;13.680;2023-01-19T00:18:26;3.90;;;2.30;;
25637;SDS011;13496;51.040;13.680;2023-01-19T00:23:28;3.13;;;2.30;;
25637;SDS011;13496;51.040;13.680;2023-01-19T00:28:30;2.00;;;1.80;;
25637;SDS011;13496;51.040;13.680;2023-01-19T00:33:31;2.37;;;1.90;;
25637;SDS011;13496;51.040;13.680;2023-01-19T00:38:33;2.10;;;1.90;;
25637;SDS011;13496;51.040;13.680;2023-01-19T00:43:35;2.03;;;1.83;;
25637;SDS011;13496;51.040;13.680;2023-01-19T00:48:36;2.40;;;2.20;;
25637;SDS011;13496;51.040;13.680;2023-01-19T00:53:38;4.30;;;2.20;;
25637;SDS011;13496;51.040;13.680;2023-01-19T00:58:39;2.17;;;1.97;;
25637;SDS011;13496;51.040;13.680;2023-01-19T01:03:41;2.17;;;1.97;;
25637;SDS011;13496;51.040;13.680;2023-01-19T01:08:43;2.33;;;2.00;;
25637;SDS011;13496;51.040;13.680;2023-01-19T01:13:44;1.90;;;1.80;;
25637;SDS011;13496;51.040;13.680;2023-01-19T01:18:46;3.57;;;2.53;;
25637;SDS011;13496;51.040;13.680;2023-01-19T01:23:48;2.17;;;1.83;;
25637;SDS011;13496;51.040;13.680;2023-01-19T01:28:49;2.63;;;1.97;;
25637;SDS011;13496;51.040;13.680;2023-01-19T01:33:51;2.20;;;2.00;;
25637;SDS011;13496;51.040;13.680;2023-01-19T01:38:52;2.40;;;2.00;;
25637;SDS011;13496;51.040;13.680;2023-01-19T01:43:55;2.10;;;1.83;;
25637;SDS011;13496;51.040;13.680;2023-01-19T01:49:24;2.10;;;1.90;;
25637;SDS011;13496;51.040;13.680;2023-01-19T01:54:30;1.93;;;1.80;;
25637;SDS011;13496;51.040;13.680;2023-01-19T01:59:34;2.13;;;1.87;;
25637;SDS011;13496;51.040;13.680;2023-01-19T02:04:42;1.70;;;1.60;;
25637;SDS011;13496;51.040;13.680;2023-01-19T02:09:47;1.93;;;1.73;;
25637;SDS011;13496;51.040;13.680;2023-01-19T02:15:26;2.03;;;1.90;;
25637;SDS011;13496;51.040;13.680;2023-01-19T02:20:27;2.10;;;1.90;;
25637;SDS011;13496;51.040;13.680;2023-01-19T02:25:31;1.80;;;1.70;;
25637;SDS011;13496;51.040;13.680;2023-01-19T02:30:33;1.90;;;1.70;;
25637;SDS011;13496;51.040;13.680;2023-01-19T02:35:38;2.17;;;1.60;;
25637;SDS011;13496;51.040;13.680;2023-01-19T02:40:41;2.13;;;1.90;;
25637;SDS011;13496;51.040;13.680;2023-01-19T02:45:45;1.63;;;1.53;;
25637;SDS011;13496;51.040;13.680;2023-01-19T02:50:49;1.97;;;1.70;;
25637;SDS011;13496;51.040;13.680;2023-01-19T02:55:55;1.83;;;1.73;;
25637;SDS011;13496;51.040;13.680;2023-01-19T03:01:27;1.80;;;1.70;;
25637;SDS011;13496;51.040;13.680;2023-01-19T03:06:51;1.70;;;1.60;;
25637;SDS011;13496;51.040;13.680;2023-01-19T03:12:08;1.77;;;1.63;;
25637;SDS011;13496;51.040;13.680;2023-01-19T03:17:18;1.60;;;1.50;;
25637;SDS011;13496;51.040;13.680;2023-01-19T03:22:23;1.57;;;1.47;;
25637;SDS011;13496;51.040;13.680;2023-01-19T03:27:29;1.97;;;1.77;;
25637;SDS011;13496;51.040;13.680;2023-01-19T03:32:35;1.87;;;1.77;;
25637;SDS011;13496;51.040;13.680;2023-01-19T03:37:42;1.80;;;1.70;;
25637;SDS011;13496;51.040;13.680;2023-01-19T03:42:45;1.87;;;1.67;;
25637;SDS011;13496;51.040;13.680;2023-01-19T03:47:47;1.67;;;1.50;;
25637;SDS011;13496;51.040;13.680;2023-01-19T03:58:20;1.67;;;1.57;;
25637;SDS011;13496;51.040;13.680;2023-01-19T04:03:22;1.60;;;1.50;;
25637;SDS011;13496;51.040;13.680;2023-01-19T04:08:24;1.80;;;1.70;;
25637;SDS011;13496;51.040;13.680;2023-01-19T04:13:25;1.73;;;1.63;;
25637;SDS011;13496;51.040;13.680;2023-01-19T04:18:29;2.07;;;1.57;;
25637;SDS011;13496;51.040;13.680;2023-01-19T04:23:32;1.73;;;1.60;;
25637;SDS011;13496;51.040;13.680;2023-01-19T04:28:34;1.70;;;1.60;;
25637;SDS011;13496;51.040;13.680;2023-01-19T04:33:37;1.50;;;1.40;;
25637;SDS011;13496;51.040;13.680;2023-01-19T04:38:38;1.87;;;1.47;;
25637;SDS011;13496;51.040;13.680;2023-01-19T04:43:40;1.77;;;1.63;;
25637;SDS011;13496;51.040;13.680;2023-01-19T04:48:42;1.63;;;1.53;;
25637;SDS011;13496;51.040;13.680;2023-01-19T04:53:43;1.67;;;1.50;;
25637;SDS011;13496;51.040;13.680;2023-01-19T04:58:45;1.97;;;1.53;;
25637;SDS011;13496;51.040;13.680;2023-01-19T05:03:47;1.83;;;1.57;;
25637;SDS011;13496;51.040;13.680;2023-01-19T05:08:48;1.70;;;1.50;;
25637;SDS011;13496;51.040;13.680;2023-01-19T05:13:51;1.93;;;1.60;;
25637;SDS011;13496;51.040;13.680;2023-01-19T05:18:53;1.40;;;1.27;;
25637;SDS011;13496;51.040;13.680;2023-01-19T05:23:54;1.80;;;1.70;;
25637;SDS011;13496;51.040;13.680;2023-01-19T05:28:56;1.50;;;1.40;;
25637;SDS011;13496;51.040;13.680;2023-01-19T05:33:58;1.60;;;1.40;;
25637;SDS011;13496;51.040;13.680;2023-01-19T05:38:59;2.13;;;1.93;;
25637;SDS011;13496;51.040;13.680;2023-01-19T05:44:01;3.03;;;1.67;;
25637;SDS011;13496;51.040;13.680;2023-01-19T05:49:03;3.00;;;1.63;;
25637;SDS011;13496;51.040;13.680;2023-01-19T05:54:05;3.33;;;1.73;;
25637;SDS011;13496;51.040;13.680;2023-01-19T05:59:08;2.23;;;1.60;;
25637;SDS011;13496;51.040;13.680;2023-01-19T06:04:10;1.93;;;1.57;;
25637;SDS011;13496;51.040;13.680;2023-01-19T06:09:12;1.70;;;1.60;;
25637;SDS011;13496;51.040;13.680;2023-01-19T06:14:13;2.07;;;1.67;;
25637;SDS011;13496;51.040;13.680;2023-01-19T06:19:15;1.80;;;1.70;;
25637;SDS011;13496;51.040;13.680;2023-01-19T06:24:17;2.60;;;1.70;;
25637;SDS011;13496;51.040;13.680;2023-01-19T06:29:19;3.73;;;1.43;;
25637;SDS011;13496;51.040;13.680;2023-01-19T06:34:20;2.77;;;1.40;;
25637;SDS011;13496;51.040;13.680;2023-01-19T06:39:22;2.00;;;1.80;;
25637;SDS011;13496;51.040;13.680;2023-01-19T06:44:24;1.83;;;1.73;;
25637;SDS011;13496;51.040;13.680;2023-01-19T06:49:26;1.47;;;1.37;;
25637;SDS011;13496;51.040;13.680;2023-01-19T06:54:27;1.97;;;1.77;;
25637;SDS011;13496;51.040;13.680;2023-01-19T06:59:29;2.33;;;1.57;;
25637;SDS011;13496;51.040;13.680;2023-01-19T07:04:31;3.40;;;1.60;;
25637;SDS011;13496;51.040;13.680;2023-01-19T07:09:32;3.97;;;1.50;;
25637;SDS011;13496;51.040;13.680;2023-01-19T07:14:34;2.37;;;1.70;;
25637;SDS011;13496;51.040;13.680;2023-01-19T07:19:36;2.63;;;1.63;;
25637;SDS011;13496;51.040;13.680;2023-01-19T07:24:37;1.50;;;1.13;;
25637;SDS011;13496;51.040;13.680;2023-01-19T07:29:39;1.50;;;1.40;;
25637;SDS011;13496;51.040;13.680;2023-01-19T07:34:40;1.77;;;1.30;;
25637;SDS011;13496;51.040;13.680;2023-01-19T07:39:42;2.23;;;1.60;;
25637;SDS011;13496;51.040;13.680;2023-01-19T07:44:44;1.37;;;1.27;;
25637;SDS011;13496;51.040;13.680;2023-01-19T07:49:45;2.60;;;1.50;;
25637;SDS011;13496;51.040;13.680;2023-01-19T07:54:47;1.40;;;1.30;;
25637;SDS011;13496;51.040;13.680;2023-01-19T07:59:51;1.37;;;1.27;;
25637;SDS011;13496;51.040;13.680;2023-01-19T08:04:53;1.37;;;1.27;;
25637;SDS011;13496;51.040;13.680;2023-01-19T08:09:55;2.20;;;1.43;;
25637;SDS011;13496;51.040;13.680;2023-01-19T08:14:56;1.40;;;1.30;;
25637;SDS011;13496;51.040;13.680;2023-01-19T08:19:58;1.53;;;1.40;;
25637;SDS011;13496;51.040;13.680;2023-01-19T08:25:00;3.10;;;1.40;;
25637;SDS011;13496;51.040;13.680;2023-01-19T08:30:01;1.70;;;1.60;;
25637;SDS011;13496;51.040;13.680;2023-01-19T08:35:03;2.03;;;1.40;;
25637;SDS011;13496;51.040;13.680;2023-01-19T08:40:06;1.57;;;1.40;;
25637;SDS011;13496;51.040;13.680;2023-01-19T08:45:09;2.27;;;1.60;;
25637;SDS011;13496;51.040;13.680;2023-01-19T08:50:10;1.40;;;1.27;;
25637;SDS011;13496;51.040;13.680;2023-01-19T08:55:12;1.70;;;1.47;;
25637;SDS011;13496;51.040;13.680;2023-01-19T09:00:14;1.63;;;1.43;;
25637;SDS011;13496;51.040;13.680;2023-01-19T09:05:16;1.40;;;1.30;;
25637;SDS011;13496;51.040;13.680;2023-01-19T09:10:18;1.30;;;1.20;;
25637;SDS011;13496;51.040;13.680;2023-01-19T09:15:20;1.40;;;1.20;;
25637;SDS011;13496;51.040;13.680;2023-01-19T09:20:21;1.43;;;1.10;;
25637;SDS011;13496;51.040;13.680;2023-01-19T09:25:24;1.40;;;1.30;;
25637;SDS011;13496;51.040;13.680;2023-01-19T09:30:26;1.57;;;1.47;;
25637;SDS011;13496;51.040;13.680;2023-01-19T09:35:28;2.07;;;1.30;;
25637;SDS011;13496;51.040;13.680;2023-01-19T09:40:31;1.43;;;1.33;;
25637;SDS011;13496;51.040;13.680;2023-01-19T09:45:34;1.13;;;1.07;;
25637;SDS011;13496;51.040;13.680;2023-01-19T09:50:46;1.40;;;1.30;;
25637;SDS011;13496;51.040;13.680;2023-01-19T09:55:49;1.20;;;1.10;;
25637;SDS011;13496;51.040;13.680;2023-01-19T10:00:52;1.30;;;1.20;;
25637;SDS011;13496;51.040;13.680;2023-01-19T10:06:03;1.50;;;1.20;;
25637;SDS011;13496;51.040;13.680;2023-01-19T10:11:55;1.20;;;1.10;;
25637;SDS011;13496;51.040;13.680;2023-01-19T10:16:33;1.30;;;1.20;;
25637;SDS011;13496;51.040;13.680;2023-01-19T10:21:40;1.47;;;1.10;;
25637;SDS011;13496;51.040;13.680;2023-01-19T10:26:46;1.30;;;1.20;;
25637;SDS011;13496;51.040;13.680;2023-01-19T10:32:00;1.40;;;1.30;;
25637;SDS011;13496;51.040;13.680;2023-01-19T10:42:28;1.20;;;1.10;;
25637;SDS011;13496;51.040;13.680;2023-01-19T10:47:34;1.40;;;1.30;;
25637;SDS011;13496;51.040;13.680;2023-01-19T10:52:37;2.10;;;1.30;;
25637;SDS011;13496;51.040;13.680;2023-01-19T10:57:40;1.40;;;1.30;;
25637;SDS011;13496;51.040;13.680;2023-01-19T11:02:48;1.40;;;1.30;;
25637;SDS011;13496;51.040;13.680;2023-01-19T11:07:51;1.57;;;1.20;;
25637;SDS011;13496;51.040;13.680;2023-01-19T11:13:00;1.30;;;1.20;;
25637;SDS011;13496;51.040;13.680;2023-01-19T11:18:07;1.80;;;1.10;;
25637;SDS011;13496;51.040;13.680;2023-01-19T11:23:26;1.30;;;1.20;;
25637;SDS011;13496;51.040;13.680;2023-01-19T11:33:41;1.40;;;1.30;;
25637;SDS011;13496;51.040;13.680;2023-01-19T11:38:50;1.33;;;1.23;;
25637;SDS011;13496;51.040;13.680;2023-01-19T11:43:57;1.23;;;1.20;;
25637;SDS011;13496;51.040;13.680;2023-01-19T11:49:07;1.40;;;1.30;;
25637;SDS011;13496;51.040;13.680;2023-01-19T11:54:22;1.40;;;1.30;;
25637;SDS011;13496;51.040;13.680;2023-01-19T11:59:28;1.43;;;1.10;;
25637;SDS011;13496;51.040;13.680;2023-01-19T12:04:31;1.33;;;1.23;;
25637;SDS011;13496;51.040;13.680;2023-01-19T12:09:40;1.40;;;1.30;;
25637;SDS011;13496;51.040;13.680;2023-01-19T12:14:48;1.00;;;1.00;;
25637;SDS011;13496;51.040;13.680;2023-01-19T12:19:58;1.10;;;1.10;;
25637;SDS011;13496;51.040;13.680;2023-01-19T12:25:05;1.30;;;1.20;;
25637;SDS011;13496;51.040;13.680;2023-01-19T12:30:22;1.50;;;1.10;;
25637;SDS011;13496;51.040;13.680;2023-01-19T12:46:26;1.20;;;1.10;;
25637;SDS011;13496;51.040;13.680;2023-01-19T12:51:30;1.40;;;1.30;;
25637;SDS011;13496;51.040;13.680;2023-01-19T12:56:33;1.20;;;1.10;;
25637;SDS011;13496;51.040;13.680;2023-01-19T13:01:38;1.30;;;1.20;;
25637;SDS011;13496;51.040;13.680;2023-01-19T13:17:20;1.30;;;1.20;;
25637;SDS011;13496;51.040;13.680;2023-01-19T13:27:49;1.53;;;1.30;;
25637;SDS011;13496;51.040;13.680;2023-01-19T13:32:52;0.90;;;0.90;;
25637;SDS011;13496;51.040;13.680;2023-01-19T13:37:56;1.37;;;1.27;;
25637;SDS011;13496;51.040;13.680;2023-01-19T13:42:59;1.30;;;1.20;;
25637;SDS011;13496;51.040;13.680;2023-01-19T13:48:03;1.37;;;1.10;;
25637;SDS011;13496;51.040;13.680;2023-01-19T13:53:16;1.37;;;1.27;;
25637;SDS011;13496;51.040;13.680;2023-01-19T13:58:24;1.10;;;1.00;;
25637;SDS011;13496;51.040;13.680;2023-01-19T14:03:26;1.27;;;1.17;;
25637;SDS011;13496;51.040;13.680;2023-01-19T14:08:28;1.40;;;1.30;;
25637;SDS011;13496;51.040;13.680;2023-01-19T14:13:32;1.43;;;1.33;;
25637;SDS011;13496;51.040;13.680;2023-01-19T14:18:37;1.47;;;1.37;;
25637;SDS011;13496;51.040;13.680;2023-01-19T14:34:32;1.27;;;1.17;;
25637;SDS011;13496;51.040;13.680;2023-01-19T14:39:36;1.33;;;1.23;;
25637;SDS011;13496;51.040;13.680;2023-01-19T14:44:38;1.30;;;1.20;;
25637;SDS011;13496;51.040;13.680;2023-01-19T14:49:40;1.50;;;1.40;;
25637;SDS011;13496;51.040;13.680;2023-01-19T14:54:47;1.40;;;1.30;;
25637;SDS011;13496;51.040;13.680;2023-01-19T14:59:49;1.07;;;1.07;;
25637;SDS011;13496;51.040;13.680;2023-01-19T15:04:51;1.20;;;1.10;;
25637;SDS011;13496;51.040;13.680;2023-01-19T15:09:55;1.23;;;1.13;;
25637;SDS011;13496;51.040;13.680;2023-01-19T15:14:59;1.40;;;1.20;;
25637;SDS011;13496;51.040;13.680;2023-01-19T15:20:01;1.33;;;1.23;;
25637;SDS011;13496;51.040;13.680;2023-01-19T15:25:03;1.40;;;1.30;;
25637;SDS011;13496;51.040;13.680;2023-01-19T15:35:36;1.17;;;1.07;;
25637;SDS011;13496;51.040;13.680;2023-01-19T15:40:38;1.40;;;1.30;;
25637;SDS011;13496;51.040;13.680;2023-01-19T15:45:43;1.60;;;1.40;;
25637;SDS011;13496;51.040;13.680;2023-01-19T15:50:48;1.90;;;1.50;;
25637;SDS011;13496;51.040;13.680;2023-01-19T15:55:50;2.00;;;1.40;;
25637;SDS011;13496;51.040;13.680;2023-01-19T16:00:56;1.40;;;1.30;;
25637;SDS011;13496;51.040;13.680;2023-01-19T16:05:59;1.47;;;1.37;;
25637;SDS011;13496;51.040;13.680;2023-01-19T16:11:02;1.40;;;1.30;;
25637;SDS011;13496;51.040;13.680;2023-01-19T16:16:11;1.30;;;1.20;;
25637;SDS011;13496;51.040;13.680;2023-01-19T16:21:15;1.70;;;1.60;;
25637;SDS011;13496;51.040;13.680;2023-01-19T16:26:25;2.73;;;1.50;;
25637;SDS011;13496;51.040;13.680;2023-01-19T16:31:31;1.50;;;1.40;;
25637;SDS011;13496;51.040;13.680;2023-01-19T16:36:33;1.60;;;1.50;;
25637;SDS011;13496;51.040;13.680;2023-01-19T16:41:36;3.17;;;1.53;;
25637;SDS011;13496;51.040;13.680;2023-01-19T16:46:39;1.83;;;1.30;;
25637;SDS011;13496;51.040;13.680;2023-01-19T16:51:43;1.90;;;1.70;;
25637;SDS011;13496;51.040;13.680;2023-01-19T16:56:46;1.47;;;1.37;;
25637;SDS011;13496;51.040;13.680;2023-01-19T17:01:48;1.60;;;1.50;;
25637;SDS011;13496;51.040;13.680;2023-01-19T17:06:51;1.73;;;1.63;;
25637;SDS011;13496;51.040;13.680;2023-01-19T17:11:53;1.70;;;1.60;;
25637;SDS011;13496;51.040;13.680;2023-01-19T17:16:55;1.80;;;1.70;;
25637;SDS011;13496;51.040;13.680;2023-01-19T17:21:56;1.53;;;1.43;;
25637;SDS011;13496;51.040;13.680;2023-01-19T17:26:58;1.47;;;1.37;;
25637;SDS011;13496;51.040;13.680;2023-01-19T17:32:00;1.60;;;1.50;;
25637;SDS011;13496;51.040;13.680;2023-01-19T17:37:01;2.87;;;1.83;;
25637;SDS011;13496;51.040;13.680;2023-01-19T17:42:03;1.73;;;1.63;;
25637;SDS011;13496;51.040;13.680;2023-01-19T17:47:05;2.10;;;1.67;;
25637;SDS011;13496;51.040;13.680;2023-01-19T17:52:06;3.60;;;2.27;;
25637;SDS011;13496;51.040;13.680;2023-01-19T17:57:08;2.33;;;2.07;;
25637;SDS011;13496;51.040;13.680;2023-01-19T18:02:10;3.30;;;2.00;;
25637;SDS011;13496;51.040;13.680;2023-01-19T18:07:11;3.33;;;2.10;;
25637;SDS011;13496;51.040;13.680;2023-01-19T18:12:13;2.57;;;2.13;;
25637;SDS011;13496;51.040;13.680;2023-01-19T18:17:16;4.27;;;2.50;;
25637;SDS011;13496;51.040;13.680;2023-01-19T18:22:18;3.07;;;2.27;;
25637;SDS011;13496;51.040;13.680;2023-01-19T18:27:20;4.10;;;2.30;;
25637;SDS011;13496;51.040;13.680;2023-01-19T18:32:40;2.63;;;2.30;;
25637;SDS011;13496;51.040;13.680;2023-01-19T18:37:41;2.53;;;2.30;;
25637;SDS011;13496;51.040;13.680;2023-01-19T18:42:43;6.60;;;2.67;;
25637;SDS011;13496;51.040;13.680;2023-01-19T18:47:46;3.00;;;2.33;;
25637;SDS011;13496;51.040;13.680;2023-01-19T18:52:47;3.30;;;2.47;;
25637;SDS011;13496;51.040;13.680;2023-01-19T18:57:51;3.30;;;2.53;;
25637;SDS011;13496;51.040;13.680;2023-01-19T19:02:53;3.03;;;2.40;;
25637;SDS011;13496;51.040;13.680;2023-01-19T19:07:55;5.63;;;3.07;;
25637;SDS011;13496;51.040;13.680;2023-01-19T19:12:57;3.40;;;2.87;;
25637;SDS011;13496;51.040;13.680;2023-01-19T19:17:59;3.33;;;2.30;;
25637;SDS011;13496;51.040;13.680;2023-01-19T19:23:00;3.23;;;2.33;;
25637;SDS011;13496;51.040;13.680;2023-01-19T19:28:02;4.53;;;2.60;;
25637;SDS011;13496;51.040;13.680;2023-01-19T19:33:04;3.43;;;2.60;;
25637;SDS011;13496;51.040;13.680;2023-01-19T19:38:06;4.97;;;2.47;;
25637;SDS011;13496;51.040;13.680;2023-01-19T19:43:07;3.20;;;2.80;;
25637;SDS011;13496;51.040;13.680;2023-01-19T19:48:09;3.77;;;2.30;;
25637;SDS011;13496;51.040;13.680;2023-01-19T19:53:10;3.03;;;2.30;;
25637;SDS011;13496;51.040;13.680;2023-01-19T19:58:12;3.53;;;2.73;;
25637;SDS011;13496;51.040;13.680;2023-01-19T20:03:14;3.77;;;2.57;;
25637;SDS011;13496;51.040;13.680;2023-01-19T20:08:15;4.83;;;3.10;;
25637;SDS011;13496;51.040;13.680;2023-01-19T20:13:17;3.00;;;2.70;;
25637;SDS011;13496;51.040;13.680;2023-01-19T20:18:19;3.37;;;2.63;;
25637;SDS011;13496;51.040;13.680;2023-01-19T20:23:21;3.43;;;2.60;;
25637;SDS011;13496;51.040;13.680;2023-01-19T20:28:23;4.07;;;2.50;;
25637;SDS011;13496;51.040;13.680;2023-01-19T20:33:25;3.70;;;2.60;;
25637;SDS011;13496;51.040;13.680;2023-01-19T20:38:27;3.03;;;2.73;;
25637;SDS011;13496;51.040;13.680;2023-01-19T20:43:29;4.47;;;2.33;;
25637;SDS011;13496;51.040;13.680;2023-01-19T20:48:31;2.83;;;2.53;;
25637;SDS011;13496;51.040;13.680;2023-01-19T20:53:33;3.03;;;2.20;;
25637;SDS011;13496;51.040;13.680;2023-01-19T20:58:35;3.93;;;2.13;;
25637;SDS011;13496;51.040;13.680;2023-01-19T21:03:37;3.27;;;2.40;;
25637;SDS011;13496;51.040;13.680;2023-01-19T21:08:39;2.87;;;2.57;;
25637;SDS011;13496;51.040;13.680;2023-01-19T21:13:40;4.10;;;2.90;;
25637;SDS011;13496;51.040;13.680;2023-01-19T21:18:42;2.93;;;2.63;;
25637;SDS011;13496;51.040;13.680;2023-01-19T21:23:44;3.43;;;2.40;;
25637;SDS011;13496;51.040;13.680;2023-01-19T21:28:47;3.03;;;2.40;;
25637;SDS011;13496;51.040;13.680;2023-01-19T21:33:50;2.67;;;2.43;;
25637;SDS011;13496;51.040;13.680;2023-01-19T21:38:53;2.60;;;2.40;;
25637;SDS011;13496;51.040;13.680;2023-01-19T21:44:00;2.77;;;2.20;;
25637;SDS011;13496;51.040;13.680;2023-01-19T21:49:04;2.60;;;2.37;;
25637;SDS011;13496;51.040;13.680;2023-01-19T21:54:07;3.20;;;2.60;;
25637;SDS011;13496;51.040;13.680;2023-01-19T21:59:11;2.50;;;2.30;;
25637;SDS011;13496;51.040;13.680;2023-01-19T22:04:13;2.60;;;2.40;;
25637;SDS011;13496;51.040;13.680;2023-01-19T22:09:15;2.87;;;2.00;;
25637;SDS011;13496;51.040;13.680;2023-01-19T22:14:17;2.60;;;2.30;;
25637;SDS011;13496;51.040;13.680;2023-01-19T22:19:18;3.93;;;2.53;;
25637;SDS011;13496;51.040;13.680;2023-01-19T22:24:20;3.40;;;2.20;;
25637;SDS011;13496;51.040;13.680;2023-01-19T22:29:22;2.73;;;2.20;;
25637;SDS011;13496;51.040;13.680;2023-01-19T22:34:24;2.40;;;2.20;;
25637;SDS011;13496;51.040;13.680;2023-01-19T22:39:26;2.33;;;2.13;;
25637;SDS011;13496;51.040;13.680;2023-01-19T22:44:28;3.30;;;2.00;;
25637;SDS011;13496;51.040;13.680;2023-01-19T22:49:29;2.30;;;2.10;;
25637;SDS011;13496;51.040;13.680;2023-01-19T22:54:31;2.57;;;2.07;;
25637;SDS011;13496;51.040;13.680;2023-01-19T22:59:33;2.53;;;1.83;;
25637;SDS011;13496;51.040;13.680;2023-01-19T23:04:34;2.30;;;2.10;;
25637;SDS011;13496;51.040;13.680;2023-01-19T23:09:36;2.23;;;2.03;;
25637;SDS011;13496;51.040;13.680;2023-01-19T23:14:38;2.13;;;1.93;;
25637;SDS011;13496;51.040;13.680;2023-01-19T23:19:39;2.10;;;1.90;;
25637;SDS011;13496;51.040;13.680;2023-01-19T23:24:41;1.90;;;1.80;;
25637;SDS011;13496;51.040;13.680;2023-01-19T23:29:43;2.30;;;1.90;;
25637;SDS011;13496;51.040;13.680;2023-01-19T23:34:44;2.03;;;1.77;;
25637;SDS011;13496;51.040;13.680;2023-01-19T23:39:46;2.33;;;2.07;;
25637;SDS011;13496;51.040;13.680;2023-01-19T23:44:48;2.30;;;2.10;;
25637;SDS011;13496;51.040;13.680;2023-01-19T23:49:49;1.70;;;1.60;;
25637;SDS011;13496;51.040;13.680;2023-01-19T23:54:51;2.13;;;1.93;;
25637;SDS011;13496;51.040;13.680;2023-01-19T23:59:52;2.20;;;2.00;;
